sensor_id;sensor_type;location;lat;lon;timestamp;P1;durP1;ratioP1;P2;durP2;ratioP2
15905;SDS011;8051;50.820;4.884;2023-04-01T00:01:12;9.40;;;8.70;;
15905;SDS011;8051;50.820;4.884;2023-04-01T00:03:43;9.60;;;9.03;;
15905;SDS011;8051;50.820;4.884;2023-04-01T00:06:11;9.87;;;9.27;;
15905;SDS011;8051;50.820;4.884;2023-04-01T00:08:41;10.33;;;9.30;;
15905;SDS011;8051;50.820;4.884;2023-04-01T00:11:09;9.17;;;8.20;;
15905;SDS011;8051;50.820;4.884;2023-04-01T00:13:36;9.70;;;8.90;;
15905;SDS011;8051;50.820;4.884;2023-04-01T00:16:04;9.07;;;8.33;;
15905;SDS011;8051;50.820;4.884;2023-04-01T00:18:32;10.30;;;9.33;;
15905;SDS011;8051;50.820;4.884;2023-04-01T00:21:01;12.00;;;9.30;;
15905;SDS011;8051;50.820;4.884;2023-04-01T00:23:28;9.93;;;9.03;;
15905;SDS011;8051;50.820;4.884;2023-04-01T00:25:56;10.17;;;9.13;;
15905;SDS011;8051;50.820;4.884;2023-04-01T00:28:26;10.03;;;9.23;;
15905;SDS011;8051;50.820;4.884;2023-04-01T00:30:54;9.47;;;8.60;;
15905;SDS011;8051;50.820;4.884;2023-04-01T00:33:21;12.93;;;8.63;;
15905;SDS011;8051;50.820;4.884;2023-04-01T00:35:49;8.57;;;7.97;;
15905;SDS011;8051;50.820;4.884;2023-04-01T00:38:18;10.13;;;8.97;;
15905;SDS011;8051;50.820;4.884;2023-04-01T00:40:45;9.00;;;8.23;;
15905;SDS011;8051;50.820;4.884;2023-04-01T00:43:14;10.30;;;9.30;;
15905;SDS011;8051;50.820;4.884;2023-04-01T00:45:45;9.83;;;8.83;;
15905;SDS011;8051;50.820;4.884;2023-04-01T00:48:14;10.37;;;9.37;;
15905;SDS011;8051;50.820;4.884;2023-04-01T00:50:45;9.53;;;8.73;;
15905;SDS011;8051;50.820;4.884;2023-04-01T00:53:18;9.43;;;8.63;;
15905;SDS011;8051;50.820;4.884;2023-04-01T00:55:49;10.60;;;9.50;;
15905;SDS011;8051;50.820;4.884;2023-04-01T00:58:20;9.73;;;8.83;;
15905;SDS011;8051;50.820;4.884;2023-04-01T01:00:49;9.67;;;8.63;;
15905;SDS011;8051;50.820;4.884;2023-04-01T01:03:18;9.60;;;8.63;;
15905;SDS011;8051;50.820;4.884;2023-04-01T01:05:50;10.10;;;8.80;;
15905;SDS011;8051;50.820;4.884;2023-04-01T01:08:38;9.90;;;8.87;;
15905;SDS011;8051;50.820;4.884;2023-04-01T01:11:20;10.27;;;9.43;;
15905;SDS011;8051;50.820;4.884;2023-04-01T01:13:56;9.73;;;8.83;;
15905;SDS011;8051;50.820;4.884;2023-04-01T01:16:29;9.47;;;8.33;;
15905;SDS011;8051;50.820;4.884;2023-04-01T01:19:02;8.20;;;7.50;;
15905;SDS011;8051;50.820;4.884;2023-04-01T01:21:43;8.87;;;8.23;;
15905;SDS011;8051;50.820;4.884;2023-04-01T01:24:36;10.87;;;7.53;;
15905;SDS011;8051;50.820;4.884;2023-04-01T01:27:13;8.43;;;7.13;;
15905;SDS011;8051;50.820;4.884;2023-04-01T01:29:57;8.43;;;7.50;;
15905;SDS011;8051;50.820;4.884;2023-04-01T01:32:40;7.67;;;6.97;;
15905;SDS011;8051;50.820;4.884;2023-04-01T01:35:36;7.60;;;6.40;;
15905;SDS011;8051;50.820;4.884;2023-04-01T01:38:08;6.93;;;5.77;;
15905;SDS011;8051;50.820;4.884;2023-04-01T01:40:41;7.30;;;6.23;;
15905;SDS011;8051;50.820;4.884;2023-04-01T01:43:12;6.77;;;5.87;;
15905;SDS011;8051;50.820;4.884;2023-04-01T01:45:44;9.03;;;6.00;;
15905;SDS011;8051;50.820;4.884;2023-04-01T01:48:15;7.60;;;5.50;;
15905;SDS011;8051;50.820;4.884;2023-04-01T01:50:46;6.10;;;5.43;;
15905;SDS011;8051;50.820;4.884;2023-04-01T01:53:14;6.07;;;5.40;;
15905;SDS011;8051;50.820;4.884;2023-04-01T01:55:43;7.73;;;4.87;;
15905;SDS011;8051;50.820;4.884;2023-04-01T01:58:13;4.53;;;4.13;;
15905;SDS011;8051;50.820;4.884;2023-04-01T02:00:46;7.07;;;4.73;;
15905;SDS011;8051;50.820;4.884;2023-04-01T02:03:17;8.20;;;4.63;;
15905;SDS011;8051;50.820;4.884;2023-04-01T02:05:49;4.10;;;3.63;;
15905;SDS011;8051;50.820;4.884;2023-04-01T02:08:20;4.03;;;3.63;;
15905;SDS011;8051;50.820;4.884;2023-04-01T02:10:53;4.20;;;3.90;;
15905;SDS011;8051;50.820;4.884;2023-04-01T02:13:26;3.90;;;3.47;;
15905;SDS011;8051;50.820;4.884;2023-04-01T02:15:59;4.10;;;3.70;;
15905;SDS011;8051;50.820;4.884;2023-04-01T02:18:33;6.47;;;4.13;;
15905;SDS011;8051;50.820;4.884;2023-04-01T02:21:04;3.73;;;3.43;;
15905;SDS011;8051;50.820;4.884;2023-04-01T02:23:34;4.20;;;3.90;;
15905;SDS011;8051;50.820;4.884;2023-04-01T02:26:03;4.53;;;4.33;;
15905;SDS011;8051;50.820;4.884;2023-04-01T02:28:33;6.83;;;4.80;;
15905;SDS011;8051;50.820;4.884;2023-04-01T02:31:03;5.57;;;5.07;;
15905;SDS011;8051;50.820;4.884;2023-04-01T02:33:33;8.07;;;5.80;;
15905;SDS011;8051;50.820;4.884;2023-04-01T02:36:01;6.87;;;6.27;;
15905;SDS011;8051;50.820;4.884;2023-04-01T02:38:30;7.50;;;6.80;;
15905;SDS011;8051;50.820;4.884;2023-04-01T02:40:58;8.90;;;8.10;;
15905;SDS011;8051;50.820;4.884;2023-04-01T02:43:27;8.50;;;7.80;;
15905;SDS011;8051;50.820;4.884;2023-04-01T02:45:54;9.73;;;8.40;;
15905;SDS011;8051;50.820;4.884;2023-04-01T02:48:22;8.43;;;7.80;;
15905;SDS011;8051;50.820;4.884;2023-04-01T02:50:49;10.17;;;7.80;;
15905;SDS011;8051;50.820;4.884;2023-04-01T02:53:17;8.77;;;7.73;;
15905;SDS011;8051;50.820;4.884;2023-04-01T02:55:46;8.50;;;6.60;;
15905;SDS011;8051;50.820;4.884;2023-04-01T02:58:15;7.80;;;7.03;;
15905;SDS011;8051;50.820;4.884;2023-04-01T03:00:43;8.10;;;7.40;;
15905;SDS011;8051;50.820;4.884;2023-04-01T03:03:10;8.53;;;6.80;;
15905;SDS011;8051;50.820;4.884;2023-04-01T03:05:39;7.93;;;7.33;;
15905;SDS011;8051;50.820;4.884;2023-04-01T03:08:06;8.50;;;7.80;;
15905;SDS011;8051;50.820;4.884;2023-04-01T03:10:34;8.03;;;7.37;;
15905;SDS011;8051;50.820;4.884;2023-04-01T03:13:03;8.87;;;7.93;;
15905;SDS011;8051;50.820;4.884;2023-04-01T03:15:31;8.40;;;7.70;;
15905;SDS011;8051;50.820;4.884;2023-04-01T03:17:58;8.67;;;8.00;;
15905;SDS011;8051;50.820;4.884;2023-04-01T03:20:26;9.13;;;7.17;;
15905;SDS011;8051;50.820;4.884;2023-04-01T03:22:53;7.50;;;6.90;;
15905;SDS011;8051;50.820;4.884;2023-04-01T03:25:21;7.73;;;6.60;;
15905;SDS011;8051;50.820;4.884;2023-04-01T03:27:49;7.60;;;6.93;;
15905;SDS011;8051;50.820;4.884;2023-04-01T03:30:17;7.90;;;7.30;;
15905;SDS011;8051;50.820;4.884;2023-04-01T03:32:45;7.23;;;6.73;;
15905;SDS011;8051;50.820;4.884;2023-04-01T03:35:12;7.83;;;7.23;;
15905;SDS011;8051;50.820;4.884;2023-04-01T03:37:40;8.33;;;7.53;;
15905;SDS011;8051;50.820;4.884;2023-04-01T03:40:07;7.57;;;6.97;;
15905;SDS011;8051;50.820;4.884;2023-04-01T03:42:36;9.40;;;7.20;;
15905;SDS011;8051;50.820;4.884;2023-04-01T03:45:04;8.47;;;7.67;;
15905;SDS011;8051;50.820;4.884;2023-04-01T03:47:33;7.40;;;6.90;;
15905;SDS011;8051;50.820;4.884;2023-04-01T03:50:00;7.83;;;7.10;;
15905;SDS011;8051;50.820;4.884;2023-04-01T03:52:28;9.93;;;6.33;;
15905;SDS011;8051;50.820;4.884;2023-04-01T03:54:56;6.27;;;5.57;;
15905;SDS011;8051;50.820;4.884;2023-04-01T03:57:23;6.47;;;5.90;;
15905;SDS011;8051;50.820;4.884;2023-04-01T03:59:51;6.90;;;6.30;;
15905;SDS011;8051;50.820;4.884;2023-04-01T04:02:19;7.23;;;6.37;;
15905;SDS011;8051;50.820;4.884;2023-04-01T04:04:47;7.13;;;6.60;;
15905;SDS011;8051;50.820;4.884;2023-04-01T04:07:15;9.20;;;6.93;;
15905;SDS011;8051;50.820;4.884;2023-04-01T04:09:42;8.30;;;7.07;;
15905;SDS011;8051;50.820;4.884;2023-04-01T04:12:10;8.10;;;7.30;;
15905;SDS011;8051;50.820;4.884;2023-04-01T04:14:37;13.03;;;8.10;;
15905;SDS011;8051;50.820;4.884;2023-04-01T04:17:05;9.03;;;8.13;;
15905;SDS011;8051;50.820;4.884;2023-04-01T04:19:33;9.30;;;8.50;;
15905;SDS011;8051;50.820;4.884;2023-04-01T04:22:02;11.53;;;9.60;;
15905;SDS011;8051;50.820;4.884;2023-04-01T04:24:29;12.37;;;10.50;;
15905;SDS011;8051;50.820;4.884;2023-04-01T04:26:57;14.17;;;11.20;;
15905;SDS011;8051;50.820;4.884;2023-04-01T04:29:24;12.17;;;10.30;;
15905;SDS011;8051;50.820;4.884;2023-04-01T04:31:51;17.57;;;11.43;;
15905;SDS011;8051;50.820;4.884;2023-04-01T04:34:20;13.77;;;11.70;;
15905;SDS011;8051;50.820;4.884;2023-04-01T04:36:48;18.63;;;11.47;;
15905;SDS011;8051;50.820;4.884;2023-04-01T04:39:17;12.70;;;10.73;;
15905;SDS011;8051;50.820;4.884;2023-04-01T04:41:44;19.53;;;12.70;;
15905;SDS011;8051;50.820;4.884;2023-04-01T04:44:11;15.33;;;10.80;;
15905;SDS011;8051;50.820;4.884;2023-04-01T04:46:39;14.33;;;11.50;;
15905;SDS011;8051;50.820;4.884;2023-04-01T04:49:06;12.63;;;10.13;;
15905;SDS011;8051;50.820;4.884;2023-04-01T04:51:34;12.83;;;10.80;;
15905;SDS011;8051;50.820;4.884;2023-04-01T04:54:02;10.73;;;9.73;;
15905;SDS011;8051;50.820;4.884;2023-04-01T04:56:32;11.73;;;10.53;;
15905;SDS011;8051;50.820;4.884;2023-04-01T04:59:01;12.03;;;10.17;;
15905;SDS011;8051;50.820;4.884;2023-04-01T05:01:28;10.70;;;8.53;;
15905;SDS011;8051;50.820;4.884;2023-04-01T05:03:56;12.10;;;9.13;;
15905;SDS011;8051;50.820;4.884;2023-04-01T05:06:23;9.50;;;8.37;;
15905;SDS011;8051;50.820;4.884;2023-04-01T05:08:54;8.90;;;7.07;;
15905;SDS011;8051;50.820;4.884;2023-04-01T05:11:22;9.57;;;8.20;;
15905;SDS011;8051;50.820;4.884;2023-04-01T05:13:52;9.63;;;7.57;;
15905;SDS011;8051;50.820;4.884;2023-04-01T05:16:20;9.23;;;7.60;;
15905;SDS011;8051;50.820;4.884;2023-04-01T05:18:47;8.20;;;7.40;;
15905;SDS011;8051;50.820;4.884;2023-04-01T05:21:15;7.33;;;6.73;;
15905;SDS011;8051;50.820;4.884;2023-04-01T05:23:43;11.90;;;7.30;;
15905;SDS011;8051;50.820;4.884;2023-04-01T05:26:11;8.30;;;6.93;;
15905;SDS011;8051;50.820;4.884;2023-04-01T05:28:40;6.67;;;6.17;;
15905;SDS011;8051;50.820;4.884;2023-04-01T05:31:09;7.20;;;6.67;;
15905;SDS011;8051;50.820;4.884;2023-04-01T05:33:37;7.90;;;6.03;;
15905;SDS011;8051;50.820;4.884;2023-04-01T05:36:08;8.23;;;5.80;;
15905;SDS011;8051;50.820;4.884;2023-04-01T05:38:36;7.13;;;6.40;;
15905;SDS011;8051;50.820;4.884;2023-04-01T05:41:04;7.57;;;6.80;;
15905;SDS011;8051;50.820;4.884;2023-04-01T05:43:32;6.90;;;6.17;;
15905;SDS011;8051;50.820;4.884;2023-04-01T05:46:02;8.93;;;6.57;;
15905;SDS011;8051;50.820;4.884;2023-04-01T05:48:31;7.90;;;7.20;;
15905;SDS011;8051;50.820;4.884;2023-04-01T05:51:00;8.93;;;7.30;;
15905;SDS011;8051;50.820;4.884;2023-04-01T05:53:27;8.00;;;7.30;;
15905;SDS011;8051;50.820;4.884;2023-04-01T05:55:55;7.47;;;6.67;;
15905;SDS011;8051;50.820;4.884;2023-04-01T05:58:22;7.70;;;7.20;;
15905;SDS011;8051;50.820;4.884;2023-04-01T06:00:50;7.70;;;7.10;;
15905;SDS011;8051;50.820;4.884;2023-04-01T06:03:17;7.77;;;7.07;;
15905;SDS011;8051;50.820;4.884;2023-04-01T06:05:46;10.57;;;9.57;;
15905;SDS011;8051;50.820;4.884;2023-04-01T06:08:15;12.67;;;11.33;;
15905;SDS011;8051;50.820;4.884;2023-04-01T06:10:49;11.60;;;10.23;;
15905;SDS011;8051;50.820;4.884;2023-04-01T06:13:28;11.07;;;9.97;;
15905;SDS011;8051;50.820;4.884;2023-04-01T06:16:11;10.63;;;9.53;;
15905;SDS011;8051;50.820;4.884;2023-04-01T06:18:56;9.80;;;9.00;;
15905;SDS011;8051;50.820;4.884;2023-04-01T06:27:45;11.43;;;10.23;;
15905;SDS011;8051;50.820;4.884;2023-04-01T06:30:30;13.47;;;9.57;;
15905;SDS011;8051;50.820;4.884;2023-04-01T06:33:07;11.50;;;10.30;;
15905;SDS011;8051;50.820;4.884;2023-04-01T06:36:11;13.47;;;11.07;;
15905;SDS011;8051;50.820;4.884;2023-04-01T06:39:02;14.20;;;12.80;;
15905;SDS011;8051;50.820;4.884;2023-04-01T06:44:47;14.07;;;12.73;;
15905;SDS011;8051;50.820;4.884;2023-04-01T06:47:24;18.73;;;14.73;;
15905;SDS011;8051;50.820;4.884;2023-04-01T06:50:05;14.77;;;13.30;;
15905;SDS011;8051;50.820;4.884;2023-04-01T06:52:41;13.80;;;12.40;;
15905;SDS011;8051;50.820;4.884;2023-04-01T06:55:21;14.63;;;13.13;;
15905;SDS011;8051;50.820;4.884;2023-04-01T06:57:55;15.40;;;12.53;;
15905;SDS011;8051;50.820;4.884;2023-04-01T07:00:27;12.80;;;11.60;;
15905;SDS011;8051;50.820;4.884;2023-04-01T07:03:01;14.17;;;12.83;;
15905;SDS011;8051;50.820;4.884;2023-04-01T07:05:33;12.70;;;11.60;;
15905;SDS011;8051;50.820;4.884;2023-04-01T07:08:02;12.17;;;10.97;;
15905;SDS011;8051;50.820;4.884;2023-04-01T07:10:39;13.07;;;10.90;;
15905;SDS011;8051;50.820;4.884;2023-04-01T07:13:13;11.50;;;10.53;;
15905;SDS011;8051;50.820;4.884;2023-04-01T07:15:54;11.03;;;10.10;;
15905;SDS011;8051;50.820;4.884;2023-04-01T07:18:30;11.23;;;10.30;;
15905;SDS011;8051;50.820;4.884;2023-04-01T07:21:03;11.33;;;10.43;;
15905;SDS011;8051;50.820;4.884;2023-04-01T07:23:38;13.53;;;12.30;;
15905;SDS011;8051;50.820;4.884;2023-04-01T07:26:14;12.50;;;11.13;;
15905;SDS011;8051;50.820;4.884;2023-04-01T07:28:44;14.07;;;12.77;;
15905;SDS011;8051;50.820;4.884;2023-04-01T07:31:15;14.23;;;12.93;;
15905;SDS011;8051;50.820;4.884;2023-04-01T07:33:54;14.27;;;12.87;;
15905;SDS011;8051;50.820;4.884;2023-04-01T07:36:31;13.40;;;12.07;;
15905;SDS011;8051;50.820;4.884;2023-04-01T07:39:06;15.23;;;12.50;;
15905;SDS011;8051;50.820;4.884;2023-04-01T07:41:49;15.60;;;12.87;;
15905;SDS011;8051;50.820;4.884;2023-04-01T07:44:25;13.87;;;12.37;;
15905;SDS011;8051;50.820;4.884;2023-04-01T07:47:05;13.70;;;12.53;;
15905;SDS011;8051;50.820;4.884;2023-04-01T07:49:48;14.80;;;11.80;;
15905;SDS011;8051;50.820;4.884;2023-04-01T07:52:24;11.87;;;10.67;;
15905;SDS011;8051;50.820;4.884;2023-04-01T07:54:59;12.10;;;11.10;;
15905;SDS011;8051;50.820;4.884;2023-04-01T07:57:35;10.67;;;9.87;;
15905;SDS011;8051;50.820;4.884;2023-04-01T08:00:08;12.20;;;10.10;;
15905;SDS011;8051;50.820;4.884;2023-04-01T08:02:45;11.80;;;10.90;;
15905;SDS011;8051;50.820;4.884;2023-04-01T08:05:23;9.07;;;8.47;;
15905;SDS011;8051;50.820;4.884;2023-04-01T08:07:57;10.60;;;9.70;;
15905;SDS011;8051;50.820;4.884;2023-04-01T08:10:34;10.53;;;9.50;;
15905;SDS011;8051;50.820;4.884;2023-04-01T08:13:12;8.27;;;7.77;;
15905;SDS011;8051;50.820;4.884;2023-04-01T08:15:49;9.93;;;9.43;;
15905;SDS011;8051;50.820;4.884;2023-04-01T08:18:27;9.80;;;9.30;;
15905;SDS011;8051;50.820;4.884;2023-04-01T08:21:00;9.13;;;8.57;;
15905;SDS011;8051;50.820;4.884;2023-04-01T08:23:30;9.40;;;8.67;;
15905;SDS011;8051;50.820;4.884;2023-04-01T08:26:00;10.03;;;9.53;;
15905;SDS011;8051;50.820;4.884;2023-04-01T08:28:33;8.70;;;8.20;;
15905;SDS011;8051;50.820;4.884;2023-04-01T08:31:06;9.53;;;9.03;;
15905;SDS011;8051;50.820;4.884;2023-04-01T08:33:38;10.07;;;9.30;;
15905;SDS011;8051;50.820;4.884;2023-04-01T08:36:09;8.97;;;8.47;;
15905;SDS011;8051;50.820;4.884;2023-04-01T08:38:41;10.00;;;9.30;;
15905;SDS011;8051;50.820;4.884;2023-04-01T08:41:21;8.97;;;8.37;;
15905;SDS011;8051;50.820;4.884;2023-04-01T08:47:19;7.93;;;7.43;;
15905;SDS011;8051;50.820;4.884;2023-04-01T08:50:21;8.67;;;8.27;;
15905;SDS011;8051;50.820;4.884;2023-04-01T08:52:58;8.03;;;7.50;;
15905;SDS011;8051;50.820;4.884;2023-04-01T08:55:47;7.70;;;7.30;;
15905;SDS011;8051;50.820;4.884;2023-04-01T08:58:47;8.83;;;8.30;;
15905;SDS011;8051;50.820;4.884;2023-04-01T09:04:26;9.37;;;8.77;;
15905;SDS011;8051;50.820;4.884;2023-04-01T09:07:12;8.17;;;7.77;;
15905;SDS011;8051;50.820;4.884;2023-04-01T09:13:10;8.50;;;8.10;;
15905;SDS011;8051;50.820;4.884;2023-04-01T09:15:49;8.63;;;8.23;;
15905;SDS011;8051;50.820;4.884;2023-04-01T09:21:41;9.60;;;9.20;;
15905;SDS011;8051;50.820;4.884;2023-04-01T09:24:34;9.67;;;9.17;;
15905;SDS011;8051;50.820;4.884;2023-04-01T09:27:13;10.47;;;9.77;;
15905;SDS011;8051;50.820;4.884;2023-04-01T09:29:56;9.47;;;8.70;;
15905;SDS011;8051;50.820;4.884;2023-04-01T09:35:45;9.53;;;9.00;;
15905;SDS011;8051;50.820;4.884;2023-04-01T09:38:21;10.17;;;9.67;;
15905;SDS011;8051;50.820;4.884;2023-04-01T09:40:54;9.70;;;9.30;;
15905;SDS011;8051;50.820;4.884;2023-04-01T09:43:27;10.73;;;10.13;;
15905;SDS011;8051;50.820;4.884;2023-04-01T09:46:18;8.67;;;8.27;;
15905;SDS011;8051;50.820;4.884;2023-04-01T09:49:14;9.80;;;9.30;;
15905;SDS011;8051;50.820;4.884;2023-04-01T09:52:00;9.10;;;8.70;;
15905;SDS011;8051;50.820;4.884;2023-04-01T09:54:42;9.60;;;9.10;;
15905;SDS011;8051;50.820;4.884;2023-04-01T10:00:32;9.40;;;9.00;;
15905;SDS011;8051;50.820;4.884;2023-04-01T10:12:46;9.60;;;9.10;;
15905;SDS011;8051;50.820;4.884;2023-04-01T10:15:44;9.73;;;9.33;;
15905;SDS011;8051;50.820;4.884;2023-04-01T10:18:34;11.63;;;11.00;;
15905;SDS011;8051;50.820;4.884;2023-04-01T10:21:23;11.83;;;11.20;;
15905;SDS011;8051;50.820;4.884;2023-04-01T10:27:15;12.20;;;11.50;;
15905;SDS011;8051;50.820;4.884;2023-04-01T10:36:49;11.10;;;10.43;;
15905;SDS011;8051;50.820;4.884;2023-04-01T10:39:38;12.40;;;11.80;;
15905;SDS011;8051;50.820;4.884;2023-04-01T10:42:38;13.43;;;12.63;;
15905;SDS011;8051;50.820;4.884;2023-04-01T10:45:47;14.20;;;13.30;;
15905;SDS011;8051;50.820;4.884;2023-04-01T10:55:14;13.90;;;13.00;;
15905;SDS011;8051;50.820;4.884;2023-04-01T10:58:18;14.00;;;13.10;;
15905;SDS011;8051;50.820;4.884;2023-04-01T11:01:13;13.70;;;12.73;;
15905;SDS011;8051;50.820;4.884;2023-04-01T11:07:22;15.40;;;14.40;;
15905;SDS011;8051;50.820;4.884;2023-04-01T11:10:40;16.60;;;15.70;;
15905;SDS011;8051;50.820;4.884;2023-04-01T11:16:53;16.27;;;15.37;;
15905;SDS011;8051;50.820;4.884;2023-04-01T11:20:03;16.10;;;15.20;;
15905;SDS011;8051;50.820;4.884;2023-04-01T11:22:54;16.00;;;15.20;;
15905;SDS011;8051;50.820;4.884;2023-04-01T11:25:54;15.60;;;14.80;;
15905;SDS011;8051;50.820;4.884;2023-04-01T11:37:22;14.00;;;13.30;;
15905;SDS011;8051;50.820;4.884;2023-04-01T11:40:01;13.87;;;13.17;;
15905;SDS011;8051;50.820;4.884;2023-04-01T11:42:43;14.87;;;14.17;;
15905;SDS011;8051;50.820;4.884;2023-04-01T11:45:21;13.87;;;13.27;;
15905;SDS011;8051;50.820;4.884;2023-04-01T11:51:00;15.40;;;14.60;;
15905;SDS011;8051;50.820;4.884;2023-04-01T11:53:44;13.60;;;12.90;;
15905;SDS011;8051;50.820;4.884;2023-04-01T11:56:27;16.53;;;15.70;;
15905;SDS011;8051;50.820;4.884;2023-04-01T12:02:16;16.00;;;15.10;;
15905;SDS011;8051;50.820;4.884;2023-04-01T12:04:58;14.87;;;14.07;;
15905;SDS011;8051;50.820;4.884;2023-04-01T12:10:39;14.63;;;13.80;;
15905;SDS011;8051;50.820;4.884;2023-04-01T12:13:19;15.10;;;14.40;;
15905;SDS011;8051;50.820;4.884;2023-04-01T12:16:04;13.03;;;12.43;;
15905;SDS011;8051;50.820;4.884;2023-04-01T12:18:48;13.10;;;12.50;;
15905;SDS011;8051;50.820;4.884;2023-04-01T12:21:22;13.50;;;12.90;;
15905;SDS011;8051;50.820;4.884;2023-04-01T12:24:09;12.00;;;11.40;;
15905;SDS011;8051;50.820;4.884;2023-04-01T12:27:11;12.97;;;12.37;;
15905;SDS011;8051;50.820;4.884;2023-04-01T12:33:03;12.73;;;12.13;;
15905;SDS011;8051;50.820;4.884;2023-04-01T12:35:46;12.60;;;11.83;;
15905;SDS011;8051;50.820;4.884;2023-04-01T12:38:25;12.40;;;11.80;;
15905;SDS011;8051;50.820;4.884;2023-04-01T12:41:04;13.43;;;12.73;;
15905;SDS011;8051;50.820;4.884;2023-04-01T12:46:56;13.10;;;12.40;;
15905;SDS011;8051;50.820;4.884;2023-04-01T12:49:52;12.80;;;12.20;;
15905;SDS011;8051;50.820;4.884;2023-04-01T12:52:34;13.13;;;12.37;;
15905;SDS011;8051;50.820;4.884;2023-04-01T13:01:16;11.87;;;11.20;;
15905;SDS011;8051;50.820;4.884;2023-04-01T13:07:06;12.37;;;11.63;;
15905;SDS011;8051;50.820;4.884;2023-04-01T13:10:00;12.97;;;12.20;;
15905;SDS011;8051;50.820;4.884;2023-04-01T13:12:49;11.77;;;11.27;;
15905;SDS011;8051;50.820;4.884;2023-04-01T13:15:28;12.40;;;11.80;;
15905;SDS011;8051;50.820;4.884;2023-04-01T13:18:05;14.20;;;13.50;;
15905;SDS011;8051;50.820;4.884;2023-04-01T13:20:44;13.53;;;12.83;;
15905;SDS011;8051;50.820;4.884;2023-04-01T13:23:24;13.63;;;12.87;;
15905;SDS011;8051;50.820;4.884;2023-04-01T13:26:03;12.93;;;12.23;;
15905;SDS011;8051;50.820;4.884;2023-04-01T13:28:39;12.90;;;12.20;;
15905;SDS011;8051;50.820;4.884;2023-04-01T13:31:16;12.63;;;11.93;;
15905;SDS011;8051;50.820;4.884;2023-04-01T13:33:59;11.90;;;11.20;;
15905;SDS011;8051;50.820;4.884;2023-04-01T13:36:46;11.20;;;10.50;;
15905;SDS011;8051;50.820;4.884;2023-04-01T13:39:31;13.77;;;12.83;;
15905;SDS011;8051;50.820;4.884;2023-04-01T13:42:18;12.87;;;12.10;;
15905;SDS011;8051;50.820;4.884;2023-04-01T13:44:54;12.57;;;11.97;;
15905;SDS011;8051;50.820;4.884;2023-04-01T13:50:47;12.47;;;11.77;;
15905;SDS011;8051;50.820;4.884;2023-04-01T13:53:28;12.40;;;11.70;;
15905;SDS011;8051;50.820;4.884;2023-04-01T13:56:24;11.60;;;11.00;;
15905;SDS011;8051;50.820;4.884;2023-04-01T13:59:10;10.57;;;10.07;;
15905;SDS011;8051;50.820;4.884;2023-04-01T14:02:07;11.40;;;10.80;;
15905;SDS011;8051;50.820;4.884;2023-04-01T14:05:04;11.13;;;10.43;;
15905;SDS011;8051;50.820;4.884;2023-04-01T14:07:50;11.40;;;10.80;;
15905;SDS011;8051;50.820;4.884;2023-04-01T14:10:29;11.07;;;10.47;;
15905;SDS011;8051;50.820;4.884;2023-04-01T14:13:04;11.20;;;10.53;;
15905;SDS011;8051;50.820;4.884;2023-04-01T14:15:48;11.40;;;10.80;;
15905;SDS011;8051;50.820;4.884;2023-04-01T14:18:37;11.00;;;10.30;;
15905;SDS011;8051;50.820;4.884;2023-04-01T14:21:17;10.70;;;10.10;;
15905;SDS011;8051;50.820;4.884;2023-04-01T14:23:56;9.63;;;9.13;;
15905;SDS011;8051;50.820;4.884;2023-04-01T14:26:39;10.00;;;9.43;;
15905;SDS011;8051;50.820;4.884;2023-04-01T14:29:24;9.57;;;9.17;;
15905;SDS011;8051;50.820;4.884;2023-04-01T14:32:02;9.73;;;9.23;;
15905;SDS011;8051;50.820;4.884;2023-04-01T14:34:44;9.00;;;8.60;;
15905;SDS011;8051;50.820;4.884;2023-04-01T14:37:32;9.00;;;8.57;;
15905;SDS011;8051;50.820;4.884;2023-04-01T14:40:28;9.03;;;8.63;;
15905;SDS011;8051;50.820;4.884;2023-04-01T14:43:16;9.77;;;9.27;;
15905;SDS011;8051;50.820;4.884;2023-04-01T14:46:06;9.23;;;8.83;;
15905;SDS011;8051;50.820;4.884;2023-04-01T14:48:55;10.23;;;9.73;;
15905;SDS011;8051;50.820;4.884;2023-04-01T14:51:29;10.67;;;10.07;;
15905;SDS011;8051;50.820;4.884;2023-04-01T14:54:02;10.50;;;9.90;;
15905;SDS011;8051;50.820;4.884;2023-04-01T14:56:35;13.10;;;12.40;;
15905;SDS011;8051;50.820;4.884;2023-04-01T14:59:04;12.50;;;11.80;;
15905;SDS011;8051;50.820;4.884;2023-04-01T15:01:43;13.50;;;12.80;;
15905;SDS011;8051;50.820;4.884;2023-04-01T15:04:29;12.97;;;12.17;;
15905;SDS011;8051;50.820;4.884;2023-04-01T15:07:21;12.90;;;12.13;;
15905;SDS011;8051;50.820;4.884;2023-04-01T15:10:10;11.77;;;11.07;;
15905;SDS011;8051;50.820;4.884;2023-04-01T15:12:48;12.63;;;11.90;;
15905;SDS011;8051;50.820;4.884;2023-04-01T15:15:30;11.40;;;10.80;;
15905;SDS011;8051;50.820;4.884;2023-04-01T15:18:07;13.33;;;12.53;;
15905;SDS011;8051;50.820;4.884;2023-04-01T15:20:42;14.47;;;13.67;;
15905;SDS011;8051;50.820;4.884;2023-04-01T15:23:28;14.23;;;13.43;;
15905;SDS011;8051;50.820;4.884;2023-04-01T15:28:58;12.90;;;12.30;;
15905;SDS011;8051;50.820;4.884;2023-04-01T15:31:38;15.30;;;14.23;;
15905;SDS011;8051;50.820;4.884;2023-04-01T15:34:20;15.23;;;14.33;;
15905;SDS011;8051;50.820;4.884;2023-04-01T15:37:00;14.00;;;13.20;;
15905;SDS011;8051;50.820;4.884;2023-04-01T15:39:37;15.40;;;14.40;;
15905;SDS011;8051;50.820;4.884;2023-04-01T15:42:12;14.70;;;13.70;;
15905;SDS011;8051;50.820;4.884;2023-04-01T15:47:45;14.83;;;14.03;;
15905;SDS011;8051;50.820;4.884;2023-04-01T15:50:34;15.50;;;14.70;;
15905;SDS011;8051;50.820;4.884;2023-04-01T15:53:27;13.70;;;13.00;;
15905;SDS011;8051;50.820;4.884;2023-04-01T15:56:07;15.37;;;14.67;;
15905;SDS011;8051;50.820;4.884;2023-04-01T15:58:46;14.30;;;13.50;;
15905;SDS011;8051;50.820;4.884;2023-04-01T16:01:24;14.53;;;13.73;;
15905;SDS011;8051;50.820;4.884;2023-04-01T16:04:04;13.53;;;12.80;;
15905;SDS011;8051;50.820;4.884;2023-04-01T16:06:57;15.10;;;14.40;;
15905;SDS011;8051;50.820;4.884;2023-04-01T16:09:35;13.57;;;12.87;;
15905;SDS011;8051;50.820;4.884;2023-04-01T16:12:12;13.27;;;12.67;;
15905;SDS011;8051;50.820;4.884;2023-04-01T16:14:49;15.00;;;14.13;;
15905;SDS011;8051;50.820;4.884;2023-04-01T16:17:35;13.67;;;12.87;;
15905;SDS011;8051;50.820;4.884;2023-04-01T16:20:15;14.17;;;13.47;;
15905;SDS011;8051;50.820;4.884;2023-04-01T16:22:49;15.00;;;14.00;;
15905;SDS011;8051;50.820;4.884;2023-04-01T16:25:29;15.03;;;14.20;;
15905;SDS011;8051;50.820;4.884;2023-04-01T16:28:04;14.40;;;13.70;;
15905;SDS011;8051;50.820;4.884;2023-04-01T16:30:46;14.53;;;13.70;;
15905;SDS011;8051;50.820;4.884;2023-04-01T16:33:21;15.80;;;14.90;;
15905;SDS011;8051;50.820;4.884;2023-04-01T16:35:55;15.03;;;14.13;;
15905;SDS011;8051;50.820;4.884;2023-04-01T16:38:32;15.73;;;14.83;;
15905;SDS011;8051;50.820;4.884;2023-04-01T16:41:12;15.43;;;14.73;;
15905;SDS011;8051;50.820;4.884;2023-04-01T16:43:44;15.63;;;14.83;;
15905;SDS011;8051;50.820;4.884;2023-04-01T16:46:27;15.20;;;14.40;;
15905;SDS011;8051;50.820;4.884;2023-04-01T16:49:00;15.30;;;14.60;;
15905;SDS011;8051;50.820;4.884;2023-04-01T16:51:35;16.07;;;15.10;;
15905;SDS011;8051;50.820;4.884;2023-04-01T16:54:11;15.40;;;14.40;;
15905;SDS011;8051;50.820;4.884;2023-04-01T16:56:46;15.90;;;15.10;;
15905;SDS011;8051;50.820;4.884;2023-04-01T16:59:19;15.70;;;14.90;;
15905;SDS011;8051;50.820;4.884;2023-04-01T17:01:55;16.77;;;15.87;;
15905;SDS011;8051;50.820;4.884;2023-04-01T17:04:31;15.73;;;14.83;;
15905;SDS011;8051;50.820;4.884;2023-04-01T17:07:11;15.60;;;14.80;;
15905;SDS011;8051;50.820;4.884;2023-04-01T17:09:54;14.80;;;14.00;;
15905;SDS011;8051;50.820;4.884;2023-04-01T17:12:42;13.40;;;12.60;;
15905;SDS011;8051;50.820;4.884;2023-04-01T17:15:16;12.90;;;12.20;;
15905;SDS011;8051;50.820;4.884;2023-04-01T17:17:52;11.30;;;10.70;;
15905;SDS011;8051;50.820;4.884;2023-04-01T17:20:40;10.37;;;9.77;;
15905;SDS011;8051;50.820;4.884;2023-04-01T17:23:12;10.93;;;10.40;;
15905;SDS011;8051;50.820;4.884;2023-04-01T17:25:48;9.53;;;9.07;;
15905;SDS011;8051;50.820;4.884;2023-04-01T17:28:40;9.77;;;9.07;;